Главная страница
METAR-TAF:

METAR-TAF

Аэропорты :

William H. Morse State Airport

Bennington, Вермонт, США

широта: 42-53-24N, долгота: 073-14-47W, высота над уровнем моря: 252 м

Текущие метеонаблюдения

Эта сводка был подготовлена 35 минут назад, в 13:54 UTC
Ветер 4 Узел переменных направлений
Температура 26°C
Влажность 74%
Давление 1018 hPa
Видимость: 14.5 км
ясное небо

METAR: KDDH 161354Z AUTO VRB04KT 9SM CLR 26/21 A3005 RMK AO2 SLP170 T02560206

Время: 10:29 (14:29 UTC)


TAF: отсутствует

Метеонаблюдения и прогнозы для более 4000 аэропортов (сводки METAR и TAF).

Имеющиеся станции представлены на карте желтыми и красными точками.

Чтобы увидеть название станции, наведите на нее мышь.

Затем щелкните, чтобы увидеть метеонаблюдения и метеопрогнозы.

Управление картой: чтобы увеличить масштаб, щелкните зеленые кнопки с черным крестиком; чтобы уменьшить масштаб, щелкните зеленую кнопку с тире; для просмотра соседних карт щелкайте зеленые стрелки.


METAR-TAF: